Time;durP1;ratioP1;P1;durP2;ratioP2;P2;SDS_P1;SDS_P2;PMS_P1;PMS_P2;Temp;Humidity;BMP_temperature;BMP_pressure;BME280_temperature;BME280_humidity;BME280_pressure;Samples;Min_cycle;Max_cycle;Signal;HPM_P1;HPM_P2
2021/06/06 00:01:44;;;;;;;10.73;8.77;;;16.50;99.90;;;;;;4981515;28;21738;-93
2021/06/06 00:04:15;;;;;;;8.50;7.57;;;16.50;99.90;;;;;;4986950;28;20654;-95
2021/06/06 00:06:41;;;;;;;12.77;8.10;;;16.50;99.90;;;;;;4984513;28;20643;-93
2021/06/06 00:09:12;;;;;;;8.87;8.00;;;16.50;99.90;;;;;;4988026;28;20637;-96
2021/06/06 00:11:41;;;;;;;11.87;10.40;;;16.50;99.90;;;;;;4991853;28;20986;-95
2021/06/06 00:14:12;;;;;;;11.93;10.83;;;16.50;99.90;;;;;;4988948;28;20621;-94
2021/06/06 00:16:44;;;;;;;11.43;10.30;;;16.40;99.90;;;;;;4989618;28;20636;-96
2021/06/06 00:19:11;;;;;;;10.03;9.10;;;16.50;99.90;;;;;;4995914;28;21163;-96
2021/06/06 00:21:39;;;;;;;12.33;8.97;;;16.40;99.90;;;;;;5000870;28;20637;-96
2021/06/06 00:24:08;;;;;;;8.90;7.73;;;16.40;99.90;;;;;;4998710;28;21251;-96
2021/06/06 00:26:34;;;;;;;9.50;8.30;;;16.40;99.90;;;;;;4990852;28;20660;-95
2021/06/06 00:29:01;;;;;;;12.60;8.50;;;16.40;99.90;;;;;;4986438;28;20637;-94
2021/06/06 00:31:28;;;;;;;10.20;8.03;;;16.30;99.90;;;;;;4993890;28;20671;-96
2021/06/06 00:33:56;;;;;;;8.20;7.40;;;16.40;99.90;;;;;;4988455;28;20625;-94
2021/06/06 00:36:23;;;;;;;12.33;8.87;;;16.20;99.90;;;;;;4989236;28;21152;-94
2021/06/06 00:38:50;;;;;;;9.77;8.07;;;16.30;99.90;;;;;;4985300;28;20663;-93
2021/06/06 00:41:19;;;;;;;11.30;7.80;;;16.30;99.90;;;;;;4985671;28;20663;-94
2021/06/06 00:43:46;;;;;;;10.17;6.93;;;16.30;99.90;;;;;;4984608;28;20663;-94
2021/06/06 00:46:15;;;;;;;7.90;7.20;;;16.30;99.90;;;;;;4981873;28;20986;-92
2021/06/06 00:48:42;;;;;;;8.73;7.83;;;16.30;99.90;;;;;;4985015;28;20641;-93
2021/06/06 00:51:19;;;;;;;9.00;6.93;;;16.30;99.90;;;;;;4990437;28;20676;-94
2021/06/06 00:53:49;;;;;;;7.37;6.63;;;16.30;99.90;;;;;;4989776;28;20694;-92
2021/06/06 00:56:19;;;;;;;9.03;6.53;;;16.40;99.90;;;;;;4994457;28;20735;-93
2021/06/06 00:58:49;;;;;;;7.77;6.50;;;16.30;99.90;;;;;;4983978;28;20651;-92
2021/06/06 01:01:17;;;;;;;8.60;7.30;;;16.30;99.90;;;;;;4982154;28;20668;-94
2021/06/06 01:03:45;;;;;;;7.50;6.73;;;16.40;99.90;;;;;;4987964;28;20660;-93
2021/06/06 01:06:20;;;;;;;7.60;6.63;;;16.40;99.90;;;;;;4982096;28;20629;-92
2021/06/06 01:08:46;;;;;;;6.63;6.03;;;16.40;99.90;;;;;;4986012;28;20638;-93
2021/06/06 01:11:18;;;;;;;13.10;9.43;;;16.40;99.90;;;;;;4985672;28;20665;-94
2021/06/06 01:13:47;;;;;;;9.10;8.30;;;16.40;99.90;;;;;;4984421;28;20612;-93
2021/06/06 01:16:18;;;;;;;8.77;7.97;;;16.30;99.90;;;;;;4981387;28;20999;-94
2021/06/06 01:18:48;;;;;;;8.80;7.90;;;16.30;99.90;;;;;;4989446;28;20737;-94
2021/06/06 01:21:25;;;;;;;7.33;6.40;;;16.30;99.90;;;;;;4986995;28;20675;-92
2021/06/06 01:24:09;;;;;;;9.10;8.30;;;16.30;99.90;;;;;;4986439;28;20768;-92
2021/06/06 01:26:41;;;;;;;8.80;8.10;;;16.30;99.90;;;;;;4984797;28;20998;-92
2021/06/06 01:29:14;;;;;;;9.00;8.30;;;16.30;99.90;;;;;;4986054;28;20592;-93
2021/06/06 01:31:43;;;;;;;7.53;6.70;;;16.30;99.90;;;;;;4986726;28;20643;-92
2021/06/06 01:34:13;;;;;;;10.33;9.43;;;16.30;99.90;;;;;;4984232;28;21081;-92
2021/06/06 01:36:44;;;;;;;11.27;10.17;;;16.30;99.90;;;;;;4994022;28;20613;-92
2021/06/06 01:39:18;;;;;;;9.20;7.63;;;16.20;99.90;;;;;;5009416;28;20684;-94
2021/06/06 01:41:50;;;;;;;8.00;7.30;;;16.20;99.90;;;;;;5008276;28;21294;-94
2021/06/06 01:44:20;;;;;;;9.33;8.53;;;16.30;99.90;;;;;;5014006;28;20656;-95
2021/06/06 01:46:51;;;;;;;8.63;7.87;;;16.30;99.90;;;;;;5013398;28;20720;-94
2021/06/06 01:49:20;;;;;;;8.80;8.10;;;16.20;99.90;;;;;;4993127;28;20708;-95
2021/06/06 01:51:49;;;;;;;9.03;8.27;;;16.20;99.90;;;;;;4987994;28;21084;-93
2021/06/06 01:54:19;;;;;;;8.77;8.03;;;16.20;99.90;;;;;;4984772;28;20629;-92
2021/06/06 01:56:48;;;;;;;7.57;6.97;;;16.30;99.90;;;;;;4986840;28;20641;-94
2021/06/06 01:59:19;;;;;;;6.37;5.73;;;16.30;99.90;;;;;;4986547;28;21009;-94
2021/06/06 02:01:46;;;;;;;6.67;6.07;;;16.30;99.90;;;;;;4988041;28;20625;-94
2021/06/06 02:04:12;;;;;;;7.73;7.13;;;16.20;99.90;;;;;;4989093;28;20656;-93
2021/06/06 02:06:43;;;;;;;7.93;6.83;;;16.20;99.90;;;;;;4986787;28;20651;-94
2021/06/06 02:09:14;;;;;;;8.73;7.87;;;16.20;99.90;;;;;;4988436;28;20667;-95
2021/06/06 02:11:46;;;;;;;6.20;4.70;;;16.20;99.90;;;;;;4986551;28;20633;-94
2021/06/06 02:14:14;;;;;;;5.43;4.93;;;16.20;99.90;;;;;;4983390;28;20616;-93
2021/06/06 02:16:44;;;;;;;5.87;5.27;;;16.30;99.90;;;;;;4986438;28;20645;-94
2021/06/06 02:19:11;;;;;;;12.90;6.40;;;16.30;99.90;;;;;;4981564;28;21137;-92
2021/06/06 02:21:37;;;;;;;5.13;4.63;;;16.30;99.90;;;;;;4972301;28;20617;-93
2021/06/06 02:24:05;;;;;;;4.90;4.40;;;16.30;99.90;;;;;;4987918;28;20672;-93
2021/06/06 02:26:37;;;;;;;7.27;5.37;;;16.30;99.90;;;;;;4983020;28;20962;-92
2021/06/06 02:29:12;;;;;;;5.37;4.90;;;16.30;99.90;;;;;;4985006;28;20650;-95
2021/06/06 02:31:44;;;;;;;5.10;4.60;;;16.30;99.90;;;;;;4986925;28;20643;-94
2021/06/06 02:34:15;;;;;;;5.63;5.03;;;16.30;99.90;;;;;;4983652;28;21187;-92
2021/06/06 02:36:50;;;;;;;6.90;5.37;;;16.30;99.90;;;;;;4984009;28;20636;-92
2021/06/06 02:39:20;;;;;;;5.80;5.30;;;16.20;99.90;;;;;;4988788;28;20706;-92
2021/06/06 02:41:49;;;;;;;7.30;6.60;;;16.20;99.90;;;;;;4979752;28;20636;-92
2021/06/06 02:44:20;;;;;;;7.03;6.33;;;16.20;99.90;;;;;;4979566;28;20648;-92
2021/06/06 02:46:49;;;;;;;7.57;6.87;;;16.20;99.90;;;;;;4983303;28;20612;-93
2021/06/06 02:49:19;;;;;;;8.03;7.27;;;16.20;99.90;;;;;;4979830;28;20636;-92
2021/06/06 02:51:50;;;;;;;7.87;7.17;;;16.20;99.90;;;;;;4982272;28;20661;-92
2021/06/06 02:54:21;;;;;;;9.30;7.83;;;16.10;99.90;;;;;;4986715;28;20637;-93
2021/06/06 02:56:51;;;;;;;8.60;7.20;;;16.10;99.90;;;;;;4984055;28;20871;-94
2021/06/06 02:59:24;;;;;;;8.70;7.33;;;16.00;99.90;;;;;;4980562;28;20641;-92
2021/06/06 03:01:53;;;;;;;8.67;7.77;;;16.00;99.90;;;;;;4983439;28;20974;-92
2021/06/06 03:04:24;;;;;;;8.13;7.33;;;16.10;99.90;;;;;;4981278;28;21397;-92
2021/06/06 03:06:55;;;;;;;7.40;6.40;;;16.10;99.90;;;;;;4981571;28;21224;-93
2021/06/06 03:09:21;;;;;;;9.57;7.90;;;16.10;99.90;;;;;;4984229;28;20629;-92
2021/06/06 03:11:51;;;;;;;8.50;7.53;;;16.10;99.90;;;;;;4983438;28;20636;-92
2021/06/06 03:14:23;;;;;;;10.23;8.10;;;16.10;99.90;;;;;;4982326;28;20663;-93
2021/06/06 03:16:59;;;;;;;6.97;6.27;;;16.00;99.90;;;;;;4980024;28;20632;-93
2021/06/06 03:19:29;;;;;;;10.70;8.33;;;16.10;99.90;;;;;;4982320;28;20636;-93
2021/06/06 03:21:56;;;;;;;9.37;8.40;;;15.90;99.90;;;;;;4983755;28;20628;-93
2021/06/06 03:24:30;;;;;;;10.93;9.80;;;15.90;99.90;;;;;;4982295;28;20665;-93
2021/06/06 03:26:56;;;;;;;11.50;9.97;;;15.80;99.90;;;;;;4978981;28;20644;-94
2021/06/06 03:29:30;;;;;;;11.57;9.70;;;15.80;99.90;;;;;;4980672;28;20619;-94
2021/06/06 03:31:59;;;;;;;12.60;11.40;;;15.80;99.90;;;;;;4986832;28;20651;-95
2021/06/06 03:34:26;;;;;;;12.63;11.37;;;15.70;99.90;;;;;;4985319;28;20645;-93
2021/06/06 03:36:52;;;;;;;12.70;10.03;;;15.70;99.90;;;;;;4983537;28;20627;-93
2021/06/06 03:39:27;;;;;;;12.53;11.23;;;15.80;99.90;;;;;;4986374;28;20647;-93
2021/06/06 03:41:54;;;;;;;13.23;11.63;;;15.80;99.90;;;;;;4978680;28;20667;-92
2021/06/06 03:44:21;;;;;;;12.23;8.40;;;15.70;99.90;;;;;;4985757;28;21003;-93
2021/06/06 03:46:49;;;;;;;12.70;10.10;;;15.60;99.90;;;;;;4984950;28;20644;-92
2021/06/06 03:49:16;;;;;;;12.37;9.40;;;15.70;99.90;;;;;;4986510;28;20625;-92
2021/06/06 03:51:43;;;;;;;11.40;8.77;;;15.70;99.90;;;;;;4980760;28;20728;-92
2021/06/06 03:54:11;;;;;;;9.23;8.20;;;15.60;99.90;;;;;;4986124;28;20628;-92
2021/06/06 03:56:37;;;;;;;10.17;8.57;;;15.60;99.90;;;;;;4984491;28;20635;-93
2021/06/06 03:59:04;;;;;;;13.80;8.80;;;15.60;99.90;;;;;;4982483;28;20700;-93
2021/06/06 04:01:31;;;;;;;11.50;9.40;;;15.60;99.90;;;;;;4986159;28;20659;-92
2021/06/06 04:03:59;;;;;;;11.07;9.07;;;15.60;99.90;;;;;;4983744;28;20663;-92
2021/06/06 04:06:25;;;;;;;10.87;9.13;;;15.50;99.90;;;;;;4985715;28;20651;-94
2021/06/06 04:08:52;;;;;;;10.20;8.33;;;15.50;99.90;;;;;;4983478;28;20643;-92
2021/06/06 04:11:19;;;;;;;13.50;9.17;;;15.50;99.90;;;;;;4985485;28;20664;-93
2021/06/06 04:13:45;;;;;;;10.83;9.43;;;15.50;99.90;;;;;;4986710;28;20624;-91
2021/06/06 04:16:12;;;;;;;13.10;11.70;;;15.50;99.90;;;;;;4983825;28;20625;-92
2021/06/06 04:18:38;;;;;;;11.70;10.20;;;15.50;99.90;;;;;;4982760;28;20648;-93
2021/06/06 04:21:13;;;;;;;13.50;10.70;;;15.40;99.90;;;;;;4983565;28;21244;-93
2021/06/06 04:23:39;;;;;;;11.90;9.70;;;15.50;99.90;;;;;;4990310;28;20667;-93
2021/06/06 04:26:06;;;;;;;13.90;10.20;;;15.50;99.90;;;;;;4992806;28;20716;-93
2021/06/06 04:28:33;;;;;;;11.70;10.50;;;15.40;99.90;;;;;;4992809;28;20623;-94
2021/06/06 04:31:00;;;;;;;16.27;11.37;;;15.40;99.90;;;;;;4998584;28;20742;-94
2021/06/06 04:33:28;;;;;;;13.60;10.27;;;15.50;99.90;;;;;;5001642;28;20648;-94
2021/06/06 04:35:55;;;;;;;13.00;10.37;;;15.50;99.90;;;;;;5018291;28;21052;-93
2021/06/06 04:38:26;;;;;;;10.80;9.67;;;15.50;99.90;;;;;;4990983;28;20641;-94
2021/06/06 04:40:54;;;;;;;11.93;9.37;;;15.50;99.90;;;;;;4996449;28;21265;-93
2021/06/06 04:43:21;;;;;;;10.87;8.30;;;15.50;99.90;;;;;;4986163;28;20660;-93
2021/06/06 04:45:47;;;;;;;12.00;9.10;;;15.50;99.90;;;;;;4992572;28;20740;-94
2021/06/06 04:48:16;;;;;;;9.37;8.27;;;15.50;99.90;;;;;;4994555;28;20652;-93
2021/06/06 04:50:45;;;;;;;14.23;8.67;;;15.50;99.90;;;;;;4996398;28;20683;-91
2021/06/06 04:53:12;;;;;;;11.00;7.90;;;15.50;99.90;;;;;;4998918;28;20639;-92
2021/06/06 04:55:40;;;;;;;9.17;8.27;;;15.50;99.90;;;;;;5000768;28;20884;-93
2021/06/06 04:58:10;;;;;;;11.23;9.43;;;15.50;99.90;;;;;;5001633;28;20639;-93
2021/06/06 05:00:40;;;;;;;15.53;7.33;;;15.50;99.90;;;;;;4998253;28;20672;-92
2021/06/06 05:03:07;;;;;;;10.57;7.77;;;15.40;99.90;;;;;;5003885;28;20691;-92
2021/06/06 05:05:33;;;;;;;10.93;8.03;;;15.40;99.90;;;;;;5008156;28;20596;-94
2021/06/06 05:08:02;;;;;;;8.27;7.30;;;15.40;99.90;;;;;;5003228;28;20620;-95
2021/06/06 05:10:32;;;;;;;9.40;7.40;;;15.50;99.90;;;;;;5013822;28;20638;-94
2021/06/06 05:13:00;;;;;;;8.90;7.37;;;15.50;99.90;;;;;;5009424;28;20645;-92
2021/06/06 05:15:27;;;;;;;7.60;6.80;;;15.60;99.90;;;;;;5012452;28;20620;-95
2021/06/06 05:17:54;;;;;;;8.20;6.80;;;15.70;99.90;;;;;;5016671;28;20622;-95
2021/06/06 05:20:23;;;;;;;8.77;7.27;;;15.70;99.90;;;;;;5012605;28;20759;-93
2021/06/06 05:22:50;;;;;;;8.50;6.63;;;15.50;99.90;;;;;;5009508;28;20664;-93
2021/06/06 05:25:18;;;;;;;16.17;7.43;;;15.60;99.90;;;;;;5013202;28;20632;-96
2021/06/06 05:27:45;;;;;;;10.40;7.90;;;15.60;99.90;;;;;;5009141;28;20727;-93
2021/06/06 05:30:18;;;;;;;11.60;7.30;;;15.60;99.90;;;;;;5009451;28;20643;-92
2021/06/06 05:32:44;;;;;;;11.20;7.70;;;15.70;99.90;;;;;;5009889;28;20656;-92
2021/06/06 05:35:12;;;;;;;8.93;8.03;;;15.80;99.90;;;;;;5010516;28;20630;-92
2021/06/06 05:37:38;;;;;;;11.73;7.10;;;15.80;99.90;;;;;;5010603;28;21156;-92
2021/06/06 05:40:07;;;;;;;7.30;6.03;;;15.80;99.90;;;;;;5005023;28;20629;-93
2021/06/06 05:42:33;;;;;;;6.97;6.13;;;15.80;99.90;;;;;;4992674;28;20672;-94
2021/06/06 05:44:59;;;;;;;9.37;8.37;;;15.70;99.90;;;;;;4991365;28;20702;-93
2021/06/06 05:47:27;;;;;;;8.50;7.53;;;15.70;99.90;;;;;;4993967;28;20669;-93
2021/06/06 05:49:53;;;;;;;10.03;8.70;;;15.70;99.90;;;;;;5010214;28;20628;-93
2021/06/06 05:52:20;;;;;;;11.47;8.63;;;15.70;99.90;;;;;;5013873;28;20640;-93
2021/06/06 05:54:46;;;;;;;9.23;8.33;;;15.70;99.90;;;;;;5012802;28;20631;-92
2021/06/06 05:57:13;;;;;;;11.00;9.10;;;15.80;99.90;;;;;;5008598;28;20660;-94
2021/06/06 05:59:40;;;;;;;11.10;9.43;;;15.70;99.90;;;;;;5007609;28;20613;-92
2021/06/06 06:02:07;;;;;;;7.90;7.10;;;15.80;99.90;;;;;;5011928;28;20707;-94
2021/06/06 06:04:35;;;;;;;8.47;7.03;;;15.70;99.90;;;;;;5010240;28;20648;-94
2021/06/06 06:07:01;;;;;;;11.27;10.13;;;15.70;99.90;;;;;;5011283;28;20637;-93
2021/06/06 06:09:27;;;;;;;11.00;9.77;;;15.60;99.90;;;;;;5011392;28;20617;-93
2021/06/06 06:11:54;;;;;;;10.63;9.60;;;15.40;99.90;;;;;;5009933;28;20664;-92
2021/06/06 07:20:29;;;;;;;10.97;9.97;;;15.40;99.90;;;;;;4959588;28;21127;-88
2021/06/06 07:22:55;;;;;;;13.53;11.60;;;15.40;99.90;;;;;;4964378;28;20641;-88
2021/06/06 07:25:24;;;;;;;12.30;11.10;;;15.30;99.90;;;;;;4967026;28;20617;-90
2021/06/06 07:27:52;;;;;;;12.97;11.67;;;15.30;99.90;;;;;;4966129;28;20643;-88
2021/06/06 07:30:22;;;;;;;13.00;11.40;;;15.30;99.90;;;;;;4966118;28;20650;-88
2021/06/06 07:32:49;;;;;;;13.60;12.30;;;15.30;99.90;;;;;;4969082;28;20633;-88
2021/06/06 07:35:21;;;;;;;12.83;11.53;;;15.20;99.90;;;;;;4967285;28;20638;-88
2021/06/06 07:37:48;;;;;;;16.10;13.47;;;15.30;99.90;;;;;;4967337;28;20650;-88
2021/06/06 07:40:16;;;;;;;14.27;12.93;;;15.20;99.90;;;;;;4967205;28;20668;-88
2021/06/06 07:42:42;;;;;;;15.10;13.57;;;15.20;99.90;;;;;;4966562;28;20935;-88
2021/06/06 07:45:13;;;;;;;14.43;13.03;;;15.20;99.90;;;;;;4965692;28;20662;-88
2021/06/06 07:47:40;;;;;;;18.50;15.60;;;15.20;99.90;;;;;;4959153;28;21014;-89
2021/06/06 07:50:08;;;;;;;19.07;15.30;;;15.10;99.90;;;;;;4963620;28;20664;-88
2021/06/06 07:52:35;;;;;;;21.30;15.83;;;15.20;99.90;;;;;;4963054;28;20645;-89
2021/06/06 07:55:11;;;;;;;24.40;15.57;;;15.10;99.90;;;;;;4963933;28;20665;-88
2021/06/06 07:57:37;;;;;;;21.93;17.70;;;15.20;99.90;;;;;;4968106;28;20640;-88
2021/06/06 08:00:07;;;;;;;23.17;17.43;;;15.20;99.90;;;;;;4970434;28;20661;-88
2021/06/06 08:02:34;;;;;;;23.13;16.67;;;15.20;99.90;;;;;;4966930;28;20637;-87
2021/06/06 08:05:00;;;;;;;21.90;17.10;;;15.20;99.90;;;;;;4962502;28;20711;-87
2021/06/06 08:07:28;;;;;;;19.93;15.87;;;15.20;99.90;;;;;;4963638;28;21048;-88
2021/06/06 08:09:55;;;;;;;21.97;17.73;;;15.30;99.90;;;;;;4966183;28;20666;-88
2021/06/06 08:12:25;;;;;;;29.00;19.30;;;15.20;99.90;;;;;;4968433;28;20648;-90
2021/06/06 08:14:52;;;;;;;28.80;19.87;;;15.30;99.90;;;;;;4972649;28;20628;-88
2021/06/06 08:17:19;;;;;;;28.83;19.00;;;15.20;99.90;;;;;;4971024;28;20710;-87
2021/06/06 08:19:45;;;;;;;27.47;19.00;;;15.30;99.90;;;;;;4964507;28;20685;-87
2021/06/06 08:22:12;;;;;;;32.10;19.27;;;15.20;99.90;;;;;;4964749;28;21179;-87
2021/06/06 08:24:38;;;;;;;24.57;18.70;;;15.20;99.90;;;;;;4963436;28;20665;-89
2021/06/06 08:27:06;;;;;;;26.30;19.27;;;15.20;99.90;;;;;;4966090;28;21111;-89
2021/06/06 08:29:33;;;;;;;26.07;19.07;;;15.20;99.90;;;;;;4965597;28;20749;-90
2021/06/06 08:32:01;;;;;;;26.93;17.80;;;15.40;99.90;;;;;;4966296;28;20649;-88
2021/06/06 08:34:28;;;;;;;23.40;17.17;;;15.40;99.90;;;;;;4970694;28;20893;-87
2021/06/06 08:36:57;;;;;;;19.37;17.33;;;15.40;99.90;;;;;;4974731;28;20923;-88
2021/06/06 08:39:27;;;;;;;20.43;16.30;;;15.50;99.90;;;;;;4970482;28;20628;-88
2021/06/06 08:41:58;;;;;;;19.87;16.60;;;15.60;99.90;;;;;;4971004;28;20972;-88
2021/06/06 08:44:28;;;;;;;16.13;14.40;;;15.50;99.90;;;;;;4981128;28;20657;-88
2021/06/06 08:47:04;;;;;;;24.20;17.40;;;15.70;99.90;;;;;;4985818;28;20633;-87
2021/06/06 08:49:35;;;;;;;19.63;15.37;;;15.70;99.90;;;;;;4982347;28;20660;-88
2021/06/06 08:52:23;;;;;;;19.60;16.50;;;16.00;99.90;;;;;;4981897;28;20672;-88
2021/06/06 08:54:56;;;;;;;18.17;16.27;;;15.90;99.90;;;;;;4981901;28;20629;-88
2021/06/06 08:57:30;;;;;;;20.90;16.97;;;15.90;99.90;;;;;;4970670;28;20634;-89
2021/06/06 08:59:58;;;;;;;19.43;15.50;;;15.90;99.90;;;;;;4963702;28;20676;-88
2021/06/06 09:02:34;;;;;;;17.53;14.93;;;16.10;99.90;;;;;;4966239;28;21000;-88
2021/06/06 09:05:05;;;;;;;19.07;14.80;;;16.10;99.90;;;;;;4967352;28;20660;-89
2021/06/06 09:07:37;;;;;;;18.30;15.53;;;16.00;99.90;;;;;;4967435;28;20719;-89
2021/06/06 09:10:10;;;;;;;18.20;14.07;;;16.10;99.90;;;;;;4966678;28;21176;-89
2021/06/06 09:12:37;;;;;;;20.13;15.60;;;16.10;99.90;;;;;;4963978;28;20637;-89
2021/06/06 09:15:06;;;;;;;18.57;15.70;;;16.10;99.90;;;;;;4969626;28;20684;-89
2021/06/06 09:17:38;;;;;;;19.60;16.13;;;16.10;99.90;;;;;;4965476;28;21196;-89
2021/06/06 09:20:07;;;;;;;17.43;15.47;;;16.10;99.90;;;;;;4965927;28;20763;-89
2021/06/06 09:22:38;;;;;;;21.27;15.60;;;16.10;99.90;;;;;;4968975;28;20720;-89
2021/06/06 09:25:11;;;;;;;19.13;16.87;;;16.10;99.90;;;;;;4969584;28;20675;-89
2021/06/06 09:27:39;;;;;;;21.73;15.30;;;16.10;99.90;;;;;;4972232;28;20605;-89
2021/06/06 09:30:10;;;;;;;16.53;14.77;;;16.30;99.90;;;;;;4968253;28;20653;-89
2021/06/06 09:32:40;;;;;;;15.17;13.53;;;16.30;99.90;;;;;;4966792;28;20956;-91
2021/06/06 09:35:21;;;;;;;19.83;15.93;;;16.30;99.90;;;;;;4963835;28;20641;-91
2021/06/06 09:37:52;;;;;;;16.00;11.83;;;16.20;99.90;;;;;;4966374;28;20660;-87
2021/06/06 09:40:30;;;;;;;14.93;11.53;;;16.20;99.90;;;;;;4965597;28;20669;-88
2021/06/06 09:42:56;;;;;;;16.17;11.60;;;16.10;99.90;;;;;;4968590;28;20668;-89
2021/06/06 09:45:26;;;;;;;18.13;12.60;;;16.10;99.90;;;;;;4970954;28;20665;-87
2021/06/06 09:48:00;;;;;;;15.93;12.93;;;16.00;99.90;;;;;;4966122;28;20997;-88
2021/06/06 09:50:35;;;;;;;16.83;15.00;;;16.00;99.90;;;;;;4968551;28;20748;-87
2021/06/06 09:53:21;;;;;;;18.30;16.50;;;16.00;99.90;;;;;;4966649;28;20676;-87
2021/06/06 09:55:53;;;;;;;21.27;19.10;;;15.90;99.90;;;;;;4966410;28;21272;-90
2021/06/06 09:58:30;;;;;;;20.80;18.60;;;16.00;99.90;;;;;;4961747;28;20626;-89
2021/06/06 10:01:06;;;;;;;22.43;19.73;;;16.10;99.90;;;;;;4957771;28;21265;-87
2021/06/06 10:03:49;;;;;;;19.57;17.47;;;16.10;99.90;;;;;;4966633;28;20805;-88
2021/06/06 10:06:31;;;;;;;21.87;19.57;;;16.10;99.90;;;;;;4962747;28;20964;-87
2021/06/06 10:09:05;;;;;;;19.03;16.90;;;16.20;99.90;;;;;;4965133;28;21195;-89
2021/06/06 10:11:53;;;;;;;21.10;18.00;;;16.30;99.90;;;;;;4963813;28;20629;-88
2021/06/06 10:14:25;;;;;;;25.03;21.90;;;16.20;99.90;;;;;;4962298;28;20640;-88
2021/06/06 10:16:55;;;;;;;25.30;18.27;;;16.40;99.90;;;;;;4964283;28;21053;-87
2021/06/06 10:19:29;;;;;;;23.50;20.63;;;16.20;99.90;;;;;;4961367;28;21223;-88
2021/06/06 10:22:01;;;;;;;18.93;17.00;;;16.40;99.90;;;;;;4962625;28;20617;-88
2021/06/06 10:24:35;;;;;;;26.33;23.27;;;16.50;99.90;;;;;;4963943;28;20672;-88
2021/06/06 10:27:08;;;;;;;27.90;24.67;;;16.70;99.90;;;;;;4966782;28;20641;-87
2021/06/06 10:29:40;;;;;;;22.03;19.83;;;16.90;99.90;;;;;;4964746;28;20650;-87
2021/06/06 10:32:13;;;;;;;27.97;24.37;;;17.10;99.90;;;;;;4967109;28;20656;-87
2021/06/06 10:34:47;;;;;;;23.20;20.70;;;16.80;99.90;;;;;;4967313;28;20624;-87
2021/06/06 10:37:14;;;;;;;27.67;24.67;;;16.80;99.90;;;;;;4967950;28;20684;-87
2021/06/06 10:39:43;;;;;;;28.50;24.90;;;16.90;99.90;;;;;;4963740;28;21199;-87
2021/06/06 10:42:18;;;;;;;31.77;27.77;;;17.00;99.90;;;;;;4965130;28;20733;-88
2021/06/06 10:44:54;;;;;;;29.60;26.60;;;17.00;99.90;;;;;;4965180;28;20730;-87
2021/06/06 10:47:27;;;;;;;27.30;24.37;;;16.60;99.90;;;;;;4968102;28;21062;-87
2021/06/06 10:50:01;;;;;;;33.20;29.67;;;16.60;99.90;;;;;;4966394;28;20866;-87
2021/06/06 10:52:32;;;;;;;35.37;31.73;;;16.30;99.90;;;;;;4967345;28;20742;-88
2021/06/06 10:55:00;;;;;;;35.73;31.93;;;16.20;99.90;;;;;;4962986;28;21185;-87
2021/06/06 10:57:36;;;;;;;40.30;33.57;;;16.10;99.90;;;;;;4958532;28;21009;-87
2021/06/06 11:00:25;;;;;;;44.67;37.27;;;16.20;99.90;;;;;;4963134;28;20670;-88
2021/06/06 11:02:56;;;;;;;38.13;33.03;;;16.00;99.90;;;;;;4956481;28;20649;-89
2021/06/06 11:05:44;;;;;;;39.20;34.27;;;16.10;99.90;;;;;;4962030;28;21061;-89
2021/06/06 11:08:37;;;;;;;41.03;34.30;;;16.00;99.90;;;;;;4961652;28;21199;-87
2021/06/06 11:11:23;;;;;;;42.67;37.57;;;16.00;99.90;;;;;;4961868;28;21019;-87
2021/06/06 11:13:52;;;;;;;38.77;33.70;;;16.10;99.90;;;;;;4960797;28;20645;-88
2021/06/06 11:16:33;;;;;;;41.17;35.60;;;15.90;99.90;;;;;;4962277;28;20957;-88
2021/06/06 11:19:03;;;;;;;42.70;38.13;;;16.00;99.90;;;;;;4960068;28;20657;-88
2021/06/06 11:21:37;;;;;;;45.70;39.80;;;16.10;99.90;;;;;;4958023;28;20680;-88
2021/06/06 11:24:07;;;;;;;43.27;38.57;;;16.00;99.90;;;;;;4962905;28;21069;-87
2021/06/06 11:26:44;;;;;;;44.63;39.43;;;16.00;99.90;;;;;;4965840;28;20646;-88
2021/06/06 11:29:14;;;;;;;49.10;40.90;;;16.00;99.90;;;;;;4956688;28;20694;-88
2021/06/06 11:31:59;;;;;;;46.00;39.63;;;16.00;99.90;;;;;;4964501;28;20687;-89
2021/06/06 11:34:29;;;;;;;50.00;42.60;;;16.10;99.90;;;;;;4965705;28;20640;-88
2021/06/06 11:37:09;;;;;;;50.60;42.00;;;16.00;99.90;;;;;;4966674;28;20956;-88
2021/06/06 11:39:40;;;;;;;60.77;47.30;;;16.10;99.90;;;;;;4962041;28;21212;-89
2021/06/06 11:42:19;;;;;;;58.53;46.67;;;16.20;99.90;;;;;;4960111;28;20637;-88
2021/06/06 11:44:49;;;;;;;62.57;49.77;;;16.10;99.90;;;;;;4944341;28;21076;-89
2021/06/06 11:47:23;;;;;;;60.53;47.10;;;16.10;99.90;;;;;;4961907;28;20634;-88
2021/06/06 11:49:56;;;;;;;64.60;47.97;;;16.10;99.90;;;;;;4963101;28;20672;-88
2021/06/06 11:52:29;;;;;;;66.77;50.20;;;16.10;99.90;;;;;;4959964;28;21047;-88
2021/06/06 11:55:00;;;;;;;66.90;51.27;;;16.10;99.90;;;;;;4959723;28;20647;-88
2021/06/06 11:57:31;;;;;;;61.50;48.63;;;16.10;99.90;;;;;;4962347;28;21072;-89
2021/06/06 12:00:03;;;;;;;64.07;46.70;;;16.10;99.90;;;;;;4966381;28;20672;-88
2021/06/06 12:02:31;;;;;;;62.23;46.17;;;16.20;99.90;;;;;;4966001;28;20679;-89
2021/06/06 12:05:09;;;;;;;56.57;46.30;;;16.30;99.90;;;;;;4964795;28;20664;-87
2021/06/06 12:07:40;;;;;;;56.17;47.40;;;16.30;99.90;;;;;;4967881;28;20715;-88
2021/06/06 12:10:19;;;;;;;53.77;47.67;;;16.30;99.90;;;;;;4966883;28;21048;-88
2021/06/06 12:12:50;;;;;;;59.00;46.00;;;16.30;99.90;;;;;;4964831;28;21211;-88
2021/06/06 12:15:21;;;;;;;58.67;46.73;;;16.40;99.90;;;;;;4964821;28;20704;-87
2021/06/06 12:17:58;;;;;;;63.87;48.17;;;16.40;99.90;;;;;;4973640;28;21230;-87
2021/06/06 12:20:25;;;;;;;52.77;46.23;;;16.40;99.90;;;;;;4970989;28;20678;-88
2021/06/06 12:23:04;;;;;;;55.27;44.23;;;16.40;99.90;;;;;;4977184;28;20618;-88
2021/06/06 12:25:30;;;;;;;50.13;42.53;;;16.50;99.90;;;;;;4974195;28;20676;-88
2021/06/06 12:28:06;;;;;;;49.20;40.10;;;16.50;99.90;;;;;;4972457;28;20633;-88
2021/06/06 12:30:36;;;;;;;46.20;31.87;;;16.50;99.90;;;;;;4966422;28;21069;-88
2021/06/06 12:33:16;;;;;;;41.27;32.97;;;16.30;99.90;;;;;;4966968;28;20624;-87
2021/06/06 12:35:47;;;;;;;48.17;31.07;;;16.30;99.90;;;;;;4960571;28;20645;-88
2021/06/06 12:38:16;;;;;;;40.13;28.90;;;16.30;99.90;;;;;;4966856;28;21202;-88
2021/06/06 12:40:43;;;;;;;37.47;29.03;;;16.30;99.90;;;;;;4967110;28;20664;-88
2021/06/06 12:43:12;;;;;;;38.70;29.90;;;16.40;99.90;;;;;;4965816;28;20676;-88
2021/06/06 12:45:42;;;;;;;40.87;31.10;;;16.30;99.90;;;;;;4968994;28;20672;-87
2021/06/06 12:48:13;;;;;;;46.43;40.30;;;16.30;99.90;;;;;;4972485;28;21038;-88
2021/06/06 12:50:41;;;;;;;48.50;40.10;;;16.40;99.90;;;;;;4967213;28;20757;-88
2021/06/06 12:53:22;;;;;;;39.97;31.97;;;16.30;99.90;;;;;;4967910;28;21156;-87
2021/06/06 12:55:49;;;;;;;47.10;40.23;;;16.30;99.90;;;;;;4966676;28;20644;-88
2021/06/06 12:58:35;;;;;;;51.00;41.43;;;16.30;99.90;;;;;;4968709;28;21064;-88
2021/06/06 13:01:11;;;;;;;47.30;40.27;;;16.40;99.90;;;;;;4968827;28;21134;-88
2021/06/06 13:03:40;;;;;;;42.47;36.67;;;16.50;99.90;;;;;;4964611;28;20637;-89
2021/06/06 13:06:32;;;;;;;51.30;40.20;;;16.70;99.90;;;;;;4968708;28;20724;-88
2021/06/06 13:09:17;;;;;;;47.20;39.60;;;16.80;99.90;;;;;;4962528;28;20633;-88
2021/06/06 13:11:47;;;;;;;43.87;39.10;;;16.80;99.90;;;;;;4962644;28;20641;-90
2021/06/06 13:14:24;;;;;;;51.43;39.93;;;16.90;99.90;;;;;;4965753;28;20741;-88
2021/06/06 13:17:13;;;;;;;47.20;41.93;;;16.90;99.90;;;;;;4962710;28;20895;-88
2021/06/06 13:19:41;;;;;;;49.87;42.93;;;16.80;99.90;;;;;;4964138;28;21227;-88
2021/06/06 13:22:25;;;;;;;44.73;40.03;;;16.90;99.90;;;;;;4969263;28;20628;-90
2021/06/06 13:24:53;;;;;;;45.17;40.47;;;17.00;99.90;;;;;;4967112;28;20637;-89
2021/06/06 13:27:36;;;;;;;45.47;39.17;;;17.10;99.90;;;;;;4967528;28;20648;-88
2021/06/06 13:30:25;;;;;;;46.77;41.77;;;17.20;99.90;;;;;;4970880;28;20652;-89
2021/06/06 13:32:56;;;;;;;46.40;41.40;;;17.20;99.90;;;;;;4964446;28;20648;-88
2021/06/06 13:35:26;;;;;;;43.70;32.43;;;17.10;99.90;;;;;;4963446;28;20634;-86
2021/06/06 13:38:02;;;;;;;;;;;;;;;;;;;;;
2021/06/06 13:40:34;;;;;;;43.00;34.13;;;17.10;99.90;;;;;;4966879;28;21121;-86
2021/06/06 13:43:00;;;;;;;41.00;32.63;;;17.10;99.90;;;;;;4963919;28;20664;-88
2021/06/06 13:45:29;;;;;;;48.83;43.73;;;17.20;99.90;;;;;;4961508;28;20654;-88
2021/06/06 13:48:03;;;;;;;45.13;40.40;;;17.00;99.90;;;;;;4973912;28;20632;-88
2021/06/06 13:50:33;;;;;;;43.73;35.00;;;17.00;99.90;;;;;;4967449;28;20641;-88
2021/06/06 13:53:00;;;;;;;46.77;35.53;;;17.20;99.90;;;;;;4968326;28;20675;-89
2021/06/06 13:55:30;;;;;;;43.27;34.07;;;17.30;99.90;;;;;;4953623;28;20645;-88
2021/06/06 13:57:59;;;;;;;47.50;34.53;;;17.40;99.90;;;;;;4951117;28;21674;-88
2021/06/06 14:00:27;;;;;;;42.40;35.33;;;17.40;99.90;;;;;;4963045;28;20781;-88